sensor_id;sensor_type;location;lat;lon;timestamp;P1;durP1;ratioP1;P2;durP2;ratioP2
43646;SDS011;56152;49.996;18.980;2022-09-13T00:03:52;25.83;;;15.52;;
43646;SDS011;56152;49.996;18.980;2022-09-13T00:08:56;19.52;;;12.05;;
43646;SDS011;56152;49.996;18.980;2022-09-13T00:14:00;23.15;;;13.57;;
43646;SDS011;56152;49.996;18.980;2022-09-13T00:19:07;22.77;;;14.13;;
43646;SDS011;56152;49.996;18.980;2022-09-13T00:24:10;23.90;;;14.38;;
43646;SDS011;56152;49.996;18.980;2022-09-13T00:29:13;23.38;;;15.07;;
43646;SDS011;56152;49.996;18.980;2022-09-13T00:34:17;23.17;;;15.95;;
43646;SDS011;56152;49.996;18.980;2022-09-13T00:39:21;29.95;;;17.05;;
43646;SDS011;56152;49.996;18.980;2022-09-13T00:49:51;21.45;;;14.90;;
43646;SDS011;56152;49.996;18.980;2022-09-13T00:54:58;26.20;;;15.32;;
43646;SDS011;56152;49.996;18.980;2022-09-13T01:00:04;20.17;;;11.68;;
43646;SDS011;56152;49.996;18.980;2022-09-13T01:05:23;21.77;;;13.25;;
43646;SDS011;56152;49.996;18.980;2022-09-13T01:10:27;23.85;;;14.10;;
43646;SDS011;56152;49.996;18.980;2022-09-13T01:15:37;21.48;;;12.68;;
43646;SDS011;56152;49.996;18.980;2022-09-13T01:20:47;17.17;;;10.80;;
43646;SDS011;56152;49.996;18.980;2022-09-13T01:26:27;14.32;;;9.30;;
43646;SDS011;56152;49.996;18.980;2022-09-13T01:31:50;12.40;;;7.72;;
43646;SDS011;56152;49.996;18.980;2022-09-13T01:37:07;21.35;;;12.48;;
43646;SDS011;56152;49.996;18.980;2022-09-13T01:42:34;23.23;;;12.43;;
43646;SDS011;56152;49.996;18.980;2022-09-13T01:47:50;17.25;;;10.88;;
43646;SDS011;56152;49.996;18.980;2022-09-13T01:52:57;13.82;;;9.90;;
43646;SDS011;56152;49.996;18.980;2022-09-13T01:58:10;11.23;;;7.85;;
43646;SDS011;56152;49.996;18.980;2022-09-13T02:03:39;17.23;;;10.40;;
43646;SDS011;56152;49.996;18.980;2022-09-13T02:08:44;18.45;;;9.68;;
43646;SDS011;56152;49.996;18.980;2022-09-13T02:13:52;20.05;;;12.32;;
43646;SDS011;56152;49.996;18.980;2022-09-13T02:19:14;20.58;;;12.52;;
43646;SDS011;56152;49.996;18.980;2022-09-13T02:24:21;21.48;;;13.90;;
43646;SDS011;56152;49.996;18.980;2022-09-13T02:29:34;20.45;;;12.38;;
43646;SDS011;56152;49.996;18.980;2022-09-13T02:34:42;18.23;;;11.90;;
43646;SDS011;56152;49.996;18.980;2022-09-13T02:39:48;20.65;;;13.13;;
43646;SDS011;56152;49.996;18.980;2022-09-13T02:44:54;19.17;;;12.77;;
43646;SDS011;56152;49.996;18.980;2022-09-13T02:50:06;19.67;;;12.75;;
43646;SDS011;56152;49.996;18.980;2022-09-13T02:55:20;19.50;;;13.45;;
43646;SDS011;56152;49.996;18.980;2022-09-13T03:00:27;16.95;;;10.90;;
43646;SDS011;56152;49.996;18.980;2022-09-13T03:05:32;20.48;;;12.45;;
43646;SDS011;56152;49.996;18.980;2022-09-13T03:16:08;18.65;;;10.98;;
43646;SDS011;56152;49.996;18.980;2022-09-13T03:21:33;19.13;;;12.20;;
43646;SDS011;56152;49.996;18.980;2022-09-13T03:27:05;19.10;;;10.77;;
43646;SDS011;56152;49.996;18.980;2022-09-13T03:32:22;21.40;;;11.27;;
43646;SDS011;56152;49.996;18.980;2022-09-13T03:37:35;22.25;;;12.48;;
43646;SDS011;56152;49.996;18.980;2022-09-13T03:42:46;28.67;;;14.18;;
43646;SDS011;56152;49.996;18.980;2022-09-13T03:47:52;25.75;;;13.90;;
43646;SDS011;56152;49.996;18.980;2022-09-13T03:58:31;27.63;;;15.35;;
43646;SDS011;56152;49.996;18.980;2022-09-13T04:03:42;25.92;;;14.50;;
43646;SDS011;56152;49.996;18.980;2022-09-13T04:08:48;23.10;;;15.25;;
43646;SDS011;56152;49.996;18.980;2022-09-13T04:13:51;21.75;;;15.48;;
43646;SDS011;56152;49.996;18.980;2022-09-13T04:18:54;25.75;;;15.02;;
43646;SDS011;56152;49.996;18.980;2022-09-13T04:23:58;24.73;;;16.85;;
43646;SDS011;56152;49.996;18.980;2022-09-13T04:34:05;21.60;;;14.43;;
43646;SDS011;56152;49.996;18.980;2022-09-13T04:39:11;25.90;;;16.45;;
43646;SDS011;56152;49.996;18.980;2022-09-13T04:44:15;21.08;;;15.30;;
43646;SDS011;56152;49.996;18.980;2022-09-13T04:49:18;21.42;;;16.02;;
43646;SDS011;56152;49.996;18.980;2022-09-13T04:54:25;26.23;;;18.15;;
43646;SDS011;56152;49.996;18.980;2022-09-13T04:59:26;31.65;;;19.75;;
43646;SDS011;56152;49.996;18.980;2022-09-13T05:04:30;24.40;;;17.58;;
43646;SDS011;56152;49.996;18.980;2022-09-13T05:09:35;21.20;;;15.15;;
43646;SDS011;56152;49.996;18.980;2022-09-13T05:14:37;31.40;;;21.80;;
43646;SDS011;56152;49.996;18.980;2022-09-13T05:19:43;30.65;;;19.60;;
43646;SDS011;56152;49.996;18.980;2022-09-13T05:24:47;71.60;;;29.10;;
43646;SDS011;56152;49.996;18.980;2022-09-13T05:29:49;42.60;;;20.00;;
43646;SDS011;56152;49.996;18.980;2022-09-13T05:34:51;37.38;;;18.55;;
43646;SDS011;56152;49.996;18.980;2022-09-13T05:39:55;19.98;;;14.23;;
43646;SDS011;56152;49.996;18.980;2022-09-13T05:44:58;19.63;;;11.52;;
43646;SDS011;56152;49.996;18.980;2022-09-13T05:50:00;16.58;;;11.95;;
43646;SDS011;56152;49.996;18.980;2022-09-13T05:55:05;16.40;;;9.77;;
43646;SDS011;56152;49.996;18.980;2022-09-13T06:00:07;15.32;;;9.70;;
43646;SDS011;56152;49.996;18.980;2022-09-13T06:05:10;12.30;;;8.48;;
43646;SDS011;56152;49.996;18.980;2022-09-13T06:10:16;12.30;;;7.82;;
43646;SDS011;56152;49.996;18.980;2022-09-13T06:15:19;12.15;;;6.10;;
43646;SDS011;56152;49.996;18.980;2022-09-13T06:20:22;11.27;;;5.88;;
43646;SDS011;56152;49.996;18.980;2022-09-13T06:25:25;10.02;;;5.70;;
43646;SDS011;56152;49.996;18.980;2022-09-13T06:30:27;7.05;;;5.10;;
43646;SDS011;56152;49.996;18.980;2022-09-13T06:35:29;6.63;;;4.82;;
43646;SDS011;56152;49.996;18.980;2022-09-13T06:40:33;8.18;;;4.40;;
43646;SDS011;56152;49.996;18.980;2022-09-13T06:45:35;7.35;;;4.80;;
43646;SDS011;56152;49.996;18.980;2022-09-13T06:50:38;8.10;;;4.20;;
43646;SDS011;56152;49.996;18.980;2022-09-13T06:55:42;7.80;;;5.22;;
43646;SDS011;56152;49.996;18.980;2022-09-13T07:00:44;5.20;;;3.72;;
43646;SDS011;56152;49.996;18.980;2022-09-13T07:05:49;6.80;;;4.88;;
43646;SDS011;56152;49.996;18.980;2022-09-13T07:10:57;6.25;;;4.10;;
43646;SDS011;56152;49.996;18.980;2022-09-13T07:16:00;6.40;;;3.60;;
43646;SDS011;56152;49.996;18.980;2022-09-13T07:21:04;6.97;;;4.18;;
43646;SDS011;56152;49.996;18.980;2022-09-13T07:26:09;5.13;;;4.43;;
43646;SDS011;56152;49.996;18.980;2022-09-13T07:31:12;6.63;;;3.75;;
43646;SDS011;56152;49.996;18.980;2022-09-13T07:36:15;6.03;;;3.65;;
43646;SDS011;56152;49.996;18.980;2022-09-13T07:41:21;4.55;;;3.75;;
43646;SDS011;56152;49.996;18.980;2022-09-13T07:46:24;4.47;;;3.20;;
43646;SDS011;56152;49.996;18.980;2022-09-13T07:51:28;8.80;;;3.55;;
43646;SDS011;56152;49.996;18.980;2022-09-13T07:56:33;7.10;;;3.92;;
43646;SDS011;56152;49.996;18.980;2022-09-13T08:01:37;4.43;;;3.30;;
43646;SDS011;56152;49.996;18.980;2022-09-13T08:06:40;4.57;;;2.90;;
43646;SDS011;56152;49.996;18.980;2022-09-13T08:11:47;7.25;;;3.42;;
43646;SDS011;56152;49.996;18.980;2022-09-13T08:16:53;6.05;;;3.95;;
43646;SDS011;56152;49.996;18.980;2022-09-13T08:21:56;6.07;;;4.28;;
43646;SDS011;56152;49.996;18.980;2022-09-13T08:27:01;16.15;;;11.98;;
43646;SDS011;56152;49.996;18.980;2022-09-13T08:32:03;5.78;;;4.03;;
43646;SDS011;56152;49.996;18.980;2022-09-13T08:37:06;4.32;;;2.88;;
43646;SDS011;56152;49.996;18.980;2022-09-13T08:42:13;4.00;;;3.10;;
43646;SDS011;56152;49.996;18.980;2022-09-13T08:47:37;3.90;;;2.50;;
43646;SDS011;56152;49.996;18.980;2022-09-13T08:52:53;6.78;;;2.88;;
43646;SDS011;56152;49.996;18.980;2022-09-13T08:58:06;3.50;;;2.88;;
43646;SDS011;56152;49.996;18.980;2022-09-13T09:03:20;3.33;;;2.85;;
43646;SDS011;56152;49.996;18.980;2022-09-13T09:08:32;3.40;;;2.30;;
43646;SDS011;56152;49.996;18.980;2022-09-13T09:13:51;5.03;;;2.78;;
43646;SDS011;56152;49.996;18.980;2022-09-13T09:18:58;3.35;;;2.25;;
43646;SDS011;56152;49.996;18.980;2022-09-13T09:24:06;3.73;;;2.47;;
43646;SDS011;56152;49.996;18.980;2022-09-13T09:29:16;3.42;;;2.28;;
43646;SDS011;56152;49.996;18.980;2022-09-13T09:34:22;2.58;;;2.03;;
43646;SDS011;56152;49.996;18.980;2022-09-13T09:39:41;3.95;;;2.92;;
43646;SDS011;56152;49.996;18.980;2022-09-13T09:44:47;4.07;;;2.47;;
43646;SDS011;56152;49.996;18.980;2022-09-13T09:49:52;4.07;;;2.75;;
43646;SDS011;56152;49.996;18.980;2022-09-13T09:55:14;6.90;;;3.28;;
43646;SDS011;56152;49.996;18.980;2022-09-13T10:00:30;6.03;;;2.97;;
43646;SDS011;56152;49.996;18.980;2022-09-13T10:05:34;4.95;;;3.40;;
43646;SDS011;56152;49.996;18.980;2022-09-13T10:10:37;3.97;;;3.13;;
43646;SDS011;56152;49.996;18.980;2022-09-13T10:15:55;6.88;;;3.35;;
43646;SDS011;56152;49.996;18.980;2022-09-13T10:20:59;3.75;;;2.40;;
43646;SDS011;56152;49.996;18.980;2022-09-13T10:26:05;3.63;;;2.28;;
43646;SDS011;56152;49.996;18.980;2022-09-13T10:31:12;3.08;;;2.70;;
43646;SDS011;56152;49.996;18.980;2022-09-13T10:36:22;3.10;;;2.25;;
43646;SDS011;56152;49.996;18.980;2022-09-13T10:41:27;4.15;;;2.80;;
43646;SDS011;56152;49.996;18.980;2022-09-13T10:46:44;3.85;;;2.05;;
43646;SDS011;56152;49.996;18.980;2022-09-13T10:51:53;4.38;;;2.30;;
43646;SDS011;56152;49.996;18.980;2022-09-13T10:56:58;2.35;;;2.10;;
43646;SDS011;56152;49.996;18.980;2022-09-13T11:02:29;3.42;;;1.92;;
43646;SDS011;56152;49.996;18.980;2022-09-13T11:13:34;6.50;;;2.42;;
43646;SDS011;56152;49.996;18.980;2022-09-13T11:19:07;5.05;;;2.50;;
43646;SDS011;56152;49.996;18.980;2022-09-13T11:24:36;3.47;;;2.28;;
43646;SDS011;56152;49.996;18.980;2022-09-13T11:29:54;6.75;;;2.58;;
43646;SDS011;56152;49.996;18.980;2022-09-13T11:35:15;3.17;;;2.42;;
43646;SDS011;56152;49.996;18.980;2022-09-13T11:40:28;5.05;;;2.78;;
43646;SDS011;56152;49.996;18.980;2022-09-13T11:45:36;2.78;;;1.98;;
43646;SDS011;56152;49.996;18.980;2022-09-13T11:50:51;2.10;;;1.88;;
43646;SDS011;56152;49.996;18.980;2022-09-13T11:56:02;2.60;;;2.30;;
43646;SDS011;56152;49.996;18.980;2022-09-13T12:06:19;2.55;;;2.30;;
43646;SDS011;56152;49.996;18.980;2022-09-13T12:11:26;2.97;;;2.10;;
43646;SDS011;56152;49.996;18.980;2022-09-13T12:16:35;3.70;;;2.55;;
43646;SDS011;56152;49.996;18.980;2022-09-13T12:21:48;3.15;;;2.40;;
43646;SDS011;56152;49.996;18.980;2022-09-13T12:27:00;4.45;;;2.30;;
43646;SDS011;56152;49.996;18.980;2022-09-13T12:32:05;4.88;;;2.50;;
43646;SDS011;56152;49.996;18.980;2022-09-13T12:37:31;2.38;;;1.85;;
43646;SDS011;56152;49.996;18.980;2022-09-13T12:42:56;3.10;;;2.40;;
43646;SDS011;56152;49.996;18.980;2022-09-13T12:48:20;2.63;;;2.20;;
43646;SDS011;56152;49.996;18.980;2022-09-13T12:53:57;2.83;;;2.30;;
43646;SDS011;56152;49.996;18.980;2022-09-13T12:59:22;4.50;;;2.70;;
43646;SDS011;56152;49.996;18.980;2022-09-13T13:04:41;3.00;;;2.40;;
43646;SDS011;56152;49.996;18.980;2022-09-13T13:09:46;3.47;;;2.65;;
43646;SDS011;56152;49.996;18.980;2022-09-13T13:15:02;3.10;;;2.80;;
43646;SDS011;56152;49.996;18.980;2022-09-13T13:31:00;2.88;;;2.25;;
43646;SDS011;56152;49.996;18.980;2022-09-13T13:41:41;3.58;;;2.28;;
43646;SDS011;56152;49.996;18.980;2022-09-13T13:47:39;23.63;;;3.47;;
43646;SDS011;56152;49.996;18.980;2022-09-13T13:52:36;3.47;;;2.58;;
43646;SDS011;56152;49.996;18.980;2022-09-13T13:57:56;3.58;;;2.55;;
43646;SDS011;56152;49.996;18.980;2022-09-13T14:03:05;6.47;;;2.63;;
43646;SDS011;56152;49.996;18.980;2022-09-13T14:08:25;4.53;;;2.67;;
43646;SDS011;56152;49.996;18.980;2022-09-13T14:13:43;8.50;;;3.00;;
43646;SDS011;56152;49.996;18.980;2022-09-13T14:18:58;3.67;;;2.50;;
43646;SDS011;56152;49.996;18.980;2022-09-13T14:24:14;4.25;;;2.55;;
43646;SDS011;56152;49.996;18.980;2022-09-13T14:29:28;3.80;;;2.30;;
43646;SDS011;56152;49.996;18.980;2022-09-13T14:34:32;3.25;;;2.20;;
43646;SDS011;56152;49.996;18.980;2022-09-13T14:39:36;5.95;;;2.67;;
43646;SDS011;56152;49.996;18.980;2022-09-13T14:44:43;3.08;;;2.70;;
43646;SDS011;56152;49.996;18.980;2022-09-13T14:49:46;3.60;;;2.20;;
43646;SDS011;56152;49.996;18.980;2022-09-13T15:00:00;3.13;;;2.30;;
43646;SDS011;56152;49.996;18.980;2022-09-13T15:05:10;2.85;;;2.30;;
43646;SDS011;56152;49.996;18.980;2022-09-13T15:10:19;4.05;;;2.35;;
43646;SDS011;56152;49.996;18.980;2022-09-13T15:15:30;4.22;;;2.60;;
43646;SDS011;56152;49.996;18.980;2022-09-13T15:20:44;4.07;;;2.70;;
43646;SDS011;56152;49.996;18.980;2022-09-13T15:25:51;4.03;;;2.65;;
43646;SDS011;56152;49.996;18.980;2022-09-13T15:30:56;3.65;;;2.35;;
43646;SDS011;56152;49.996;18.980;2022-09-13T15:36:24;9.70;;;2.78;;
43646;SDS011;56152;49.996;18.980;2022-09-13T15:41:32;6.65;;;2.53;;
43646;SDS011;56152;49.996;18.980;2022-09-13T15:46:45;4.90;;;2.22;;
43646;SDS011;56152;49.996;18.980;2022-09-13T15:51:51;11.18;;;2.67;;
43646;SDS011;56152;49.996;18.980;2022-09-13T15:56:54;2.90;;;2.40;;
43646;SDS011;56152;49.996;18.980;2022-09-13T16:01:58;3.50;;;2.78;;
43646;SDS011;56152;49.996;18.980;2022-09-13T16:07:05;5.38;;;2.92;;
43646;SDS011;56152;49.996;18.980;2022-09-13T16:12:08;4.13;;;2.50;;
43646;SDS011;56152;49.996;18.980;2022-09-13T16:17:15;2.72;;;2.30;;
43646;SDS011;56152;49.996;18.980;2022-09-13T16:22:21;3.58;;;2.42;;
43646;SDS011;56152;49.996;18.980;2022-09-13T16:27:24;3.72;;;2.33;;
43646;SDS011;56152;49.996;18.980;2022-09-13T16:32:29;3.03;;;2.10;;
43646;SDS011;56152;49.996;18.980;2022-09-13T16:37:31;7.43;;;2.88;;
43646;SDS011;56152;49.996;18.980;2022-09-13T16:42:36;3.03;;;2.33;;
43646;SDS011;56152;49.996;18.980;2022-09-13T16:47:42;4.32;;;3.13;;
43646;SDS011;56152;49.996;18.980;2022-09-13T16:52:44;4.82;;;2.42;;
43646;SDS011;56152;49.996;18.980;2022-09-13T16:57:47;4.75;;;2.90;;
43646;SDS011;56152;49.996;18.980;2022-09-13T17:02:52;6.18;;;3.35;;
43646;SDS011;56152;49.996;18.980;2022-09-13T17:07:55;5.07;;;3.00;;
43646;SDS011;56152;49.996;18.980;2022-09-13T17:12:57;3.95;;;3.10;;
43646;SDS011;56152;49.996;18.980;2022-09-13T17:18:01;10.63;;;3.30;;
43646;SDS011;56152;49.996;18.980;2022-09-13T17:23:03;5.03;;;3.40;;
43646;SDS011;56152;49.996;18.980;2022-09-13T17:28:06;6.80;;;4.93;;
43646;SDS011;56152;49.996;18.980;2022-09-13T17:33:10;5.63;;;3.88;;
43646;SDS011;56152;49.996;18.980;2022-09-13T17:38:13;9.98;;;4.38;;
43646;SDS011;56152;49.996;18.980;2022-09-13T17:43:16;7.47;;;4.78;;
43646;SDS011;56152;49.996;18.980;2022-09-13T17:48:22;10.13;;;3.70;;
43646;SDS011;56152;49.996;18.980;2022-09-13T17:53:24;6.70;;;4.20;;
43646;SDS011;56152;49.996;18.980;2022-09-13T17:58:26;6.82;;;3.47;;
43646;SDS011;56152;49.996;18.980;2022-09-13T18:03:29;7.93;;;4.00;;
43646;SDS011;56152;49.996;18.980;2022-09-13T18:08:34;5.68;;;3.65;;
43646;SDS011;56152;49.996;18.980;2022-09-13T18:13:37;6.50;;;3.50;;
43646;SDS011;56152;49.996;18.980;2022-09-13T18:18:41;5.75;;;3.50;;
43646;SDS011;56152;49.996;18.980;2022-09-13T18:23:45;4.15;;;2.90;;
43646;SDS011;56152;49.996;18.980;2022-09-13T18:28:51;5.38;;;4.00;;
43646;SDS011;56152;49.996;18.980;2022-09-13T18:33:57;6.70;;;3.97;;
43646;SDS011;56152;49.996;18.980;2022-09-13T18:39:00;5.28;;;3.60;;
43646;SDS011;56152;49.996;18.980;2022-09-13T18:44:03;4.45;;;3.25;;
43646;SDS011;56152;49.996;18.980;2022-09-13T18:49:07;5.10;;;2.80;;
43646;SDS011;56152;49.996;18.980;2022-09-13T18:54:11;3.88;;;2.60;;
43646;SDS011;56152;49.996;18.980;2022-09-13T18:59:15;3.70;;;2.67;;
43646;SDS011;56152;49.996;18.980;2022-09-13T19:04:21;6.70;;;3.50;;
43646;SDS011;56152;49.996;18.980;2022-09-13T19:09:24;7.30;;;3.50;;
43646;SDS011;56152;49.996;18.980;2022-09-13T19:14:26;3.97;;;2.65;;
43646;SDS011;56152;49.996;18.980;2022-09-13T19:19:34;3.47;;;2.85;;
43646;SDS011;56152;49.996;18.980;2022-09-13T19:24:36;6.25;;;3.40;;
43646;SDS011;56152;49.996;18.980;2022-09-13T19:29:39;6.05;;;3.55;;
43646;SDS011;56152;49.996;18.980;2022-09-13T19:34:43;6.60;;;4.45;;
43646;SDS011;56152;49.996;18.980;2022-09-13T19:39:48;5.80;;;4.10;;
43646;SDS011;56152;49.996;18.980;2022-09-13T19:44:50;7.45;;;4.10;;
43646;SDS011;56152;49.996;18.980;2022-09-13T19:49:57;9.07;;;4.40;;
43646;SDS011;56152;49.996;18.980;2022-09-13T19:55:01;4.80;;;3.63;;
43646;SDS011;56152;49.996;18.980;2022-09-13T20:00:03;4.90;;;3.45;;
43646;SDS011;56152;49.996;18.980;2022-09-13T20:05:09;8.60;;;3.65;;
43646;SDS011;56152;49.996;18.980;2022-09-13T20:10:21;4.90;;;3.50;;
43646;SDS011;56152;49.996;18.980;2022-09-13T20:15:26;4.35;;;3.13;;
43646;SDS011;56152;49.996;18.980;2022-09-13T20:20:46;6.90;;;3.65;;
43646;SDS011;56152;49.996;18.980;2022-09-13T20:25:49;5.47;;;3.83;;
43646;SDS011;56152;49.996;18.980;2022-09-13T20:30:52;7.13;;;3.58;;
43646;SDS011;56152;49.996;18.980;2022-09-13T20:35:57;4.97;;;3.30;;
43646;SDS011;56152;49.996;18.980;2022-09-13T20:41:09;5.13;;;3.50;;
43646;SDS011;56152;49.996;18.980;2022-09-13T20:46:19;5.45;;;4.10;;
43646;SDS011;56152;49.996;18.980;2022-09-13T20:51:24;5.72;;;3.17;;
43646;SDS011;56152;49.996;18.980;2022-09-13T20:56:31;6.50;;;3.30;;
43646;SDS011;56152;49.996;18.980;2022-09-13T21:01:36;4.57;;;3.35;;
43646;SDS011;56152;49.996;18.980;2022-09-13T21:06:40;6.90;;;4.45;;
43646;SDS011;56152;49.996;18.980;2022-09-13T21:12:12;7.25;;;5.18;;
43646;SDS011;56152;49.996;18.980;2022-09-13T21:17:15;8.00;;;4.65;;
43646;SDS011;56152;49.996;18.980;2022-09-13T21:22:21;6.22;;;4.05;;
43646;SDS011;56152;49.996;18.980;2022-09-13T21:27:23;7.10;;;4.00;;
43646;SDS011;56152;49.996;18.980;2022-09-13T21:32:28;5.15;;;3.80;;
43646;SDS011;56152;49.996;18.980;2022-09-13T21:37:34;6.15;;;3.80;;
43646;SDS011;56152;49.996;18.980;2022-09-13T21:42:37;6.82;;;4.53;;
43646;SDS011;56152;49.996;18.980;2022-09-13T21:47:39;4.05;;;3.30;;
43646;SDS011;56152;49.996;18.980;2022-09-13T21:52:53;4.78;;;3.22;;
43646;SDS011;56152;49.996;18.980;2022-09-13T21:57:58;6.78;;;4.15;;
43646;SDS011;56152;49.996;18.980;2022-09-13T22:03:06;4.32;;;3.40;;
43646;SDS011;56152;49.996;18.980;2022-09-13T22:08:28;7.18;;;4.35;;
43646;SDS011;56152;49.996;18.980;2022-09-13T22:13:33;5.25;;;3.78;;
43646;SDS011;56152;49.996;18.980;2022-09-13T22:18:37;5.68;;;4.63;;
43646;SDS011;56152;49.996;18.980;2022-09-13T22:23:40;6.60;;;4.38;;
43646;SDS011;56152;49.996;18.980;2022-09-13T22:28:44;6.10;;;3.83;;
43646;SDS011;56152;49.996;18.980;2022-09-13T22:33:46;6.15;;;3.90;;
43646;SDS011;56152;49.996;18.980;2022-09-13T22:38:52;5.45;;;3.72;;
43646;SDS011;56152;49.996;18.980;2022-09-13T22:43:55;5.13;;;3.65;;
43646;SDS011;56152;49.996;18.980;2022-09-13T22:49:00;5.90;;;3.78;;
43646;SDS011;56152;49.996;18.980;2022-09-13T22:54:05;6.93;;;3.85;;
43646;SDS011;56152;49.996;18.980;2022-09-13T22:59:09;7.78;;;4.10;;
43646;SDS011;56152;49.996;18.980;2022-09-13T23:04:19;5.15;;;3.92;;
43646;SDS011;56152;49.996;18.980;2022-09-13T23:09:23;7.97;;;4.03;;
43646;SDS011;56152;49.996;18.980;2022-09-13T23:14:26;5.22;;;3.83;;
43646;SDS011;56152;49.996;18.980;2022-09-13T23:19:28;6.55;;;4.53;;
43646;SDS011;56152;49.996;18.980;2022-09-13T23:24:41;6.32;;;3.90;;
43646;SDS011;56152;49.996;18.980;2022-09-13T23:29:43;5.07;;;3.88;;
43646;SDS011;56152;49.996;18.980;2022-09-13T23:34:47;5.13;;;3.65;;
43646;SDS011;56152;49.996;18.980;2022-09-13T23:39:50;5.97;;;4.60;;
43646;SDS011;56152;49.996;18.980;2022-09-13T23:44:52;5.28;;;4.43;;
43646;SDS011;56152;49.996;18.980;2022-09-13T23:49:54;6.40;;;3.78;;
43646;SDS011;56152;49.996;18.980;2022-09-13T23:55:01;8.60;;;4.30;;
